createdAt,value
2018-07-17T00:00:10.490Z,17.70
2018-07-17T00:02:39.409Z,17.70
2018-07-17T00:05:09.010Z,17.70
2018-07-17T00:07:38.115Z,17.70
2018-07-17T00:10:07.345Z,17.70
2018-07-17T00:12:36.018Z,17.70
2018-07-17T00:15:04.776Z,17.70
2018-07-17T00:17:34.014Z,17.70
2018-07-17T00:20:02.633Z,17.60
2018-07-17T00:22:31.241Z,17.60
2018-07-17T00:25:00.085Z,17.60
2018-07-17T00:27:28.702Z,17.50
2018-07-17T00:29:57.405Z,17.50
2018-07-17T00:32:26.029Z,17.50
2018-07-17T00:34:54.680Z,17.60
2018-07-17T00:37:23.236Z,17.60
2018-07-17T00:39:52.032Z,17.50
2018-07-17T00:42:20.953Z,17.50
2018-07-17T00:44:49.801Z,17.50
2018-07-17T00:47:18.643Z,17.50
2018-07-17T00:49:47.220Z,17.50
2018-07-17T00:52:15.887Z,17.60
2018-07-17T00:54:44.700Z,17.50
2018-07-17T00:57:13.385Z,17.50
2018-07-17T00:59:42.000Z,17.50
2018-07-17T01:02:15.984Z,17.50
2018-07-17T01:04:49.892Z,17.50
2018-07-17T01:07:23.919Z,17.50
2018-07-17T01:09:57.830Z,17.50
2018-07-17T01:12:25.558Z,17.50
2018-07-17T01:14:59.997Z,17.50
2018-07-17T01:17:29.107Z,17.40
2018-07-17T01:19:57.854Z,17.40
2018-07-17T01:22:26.443Z,17.40
2018-07-17T01:24:55.041Z,17.40
2018-07-17T01:27:23.716Z,17.40
2018-07-17T01:29:52.429Z,17.40
2018-07-17T01:32:21.017Z,17.40
2018-07-17T01:34:49.640Z,17.40
2018-07-17T01:37:18.422Z,17.30
2018-07-17T01:39:47.007Z,17.30
2018-07-17T01:42:15.583Z,17.40
2018-07-17T01:44:44.221Z,17.30
2018-07-17T01:47:13.339Z,17.40
2018-07-17T01:49:41.937Z,17.30
2018-07-17T01:52:10.653Z,17.30
2018-07-17T01:54:39.315Z,17.20
2018-07-17T01:57:08.181Z,17.20
2018-07-17T01:59:36.761Z,17.20
2018-07-17T02:02:07.737Z,17.20
2018-07-17T02:04:36.381Z,17.20
2018-07-17T02:07:05.052Z,17.20
2018-07-17T02:09:33.666Z,17.20
2018-07-17T02:12:02.329Z,17.20
2018-07-17T02:14:31.025Z,17.20
2018-07-17T02:16:59.662Z,17.20
2018-07-17T02:19:28.278Z,17.10
2018-07-17T02:21:56.852Z,17.10
2018-07-17T02:24:25.562Z,17.10
2018-07-17T02:26:54.205Z,17.10
2018-07-17T02:29:22.772Z,17.10
2018-07-17T02:31:51.500Z,17.10
2018-07-17T02:34:22.040Z,17.10
2018-07-17T02:36:50.639Z,17.10
2018-07-17T02:39:19.344Z,17.10
2018-07-17T02:41:47.969Z,17.10
2018-07-17T02:44:16.605Z,17.10
2018-07-17T02:46:45.262Z,17.10
2018-07-17T02:49:13.945Z,17.10
2018-07-17T02:51:42.565Z,17.00
2018-07-17T02:54:11.135Z,17.00
2018-07-17T02:56:39.781Z,17.00
2018-07-17T02:59:08.462Z,17.00
2018-07-17T03:01:37.018Z,17.00
2018-07-17T03:04:05.661Z,17.00
2018-07-17T03:06:34.290Z,17.00
2018-07-17T03:09:03.057Z,17.00
2018-07-17T03:11:31.641Z,16.90
2018-07-17T03:14:00.498Z,17.00
2018-07-17T03:16:29.142Z,17.00
2018-07-17T03:18:57.841Z,17.00
2018-07-17T03:21:26.470Z,16.90
2018-07-17T03:23:55.155Z,16.90
2018-07-17T03:26:23.738Z,16.90
2018-07-17T03:28:52.363Z,16.90
2018-07-17T03:31:21.643Z,17.00
2018-07-17T03:33:50.236Z,17.00
2018-07-17T03:36:18.885Z,16.90
2018-07-17T03:38:47.529Z,17.00
2018-07-17T03:41:16.169Z,16.90
2018-07-17T03:43:44.805Z,17.00
2018-07-17T03:46:13.469Z,16.90
2018-07-17T03:48:42.153Z,16.90
2018-07-17T03:51:10.872Z,16.90
2018-07-17T03:53:39.489Z,16.80
2018-07-17T03:56:08.091Z,16.80
2018-07-17T03:58:36.740Z,16.80
2018-07-17T04:01:05.483Z,16.80
2018-07-17T04:03:34.037Z,16.90
2018-07-17T04:06:02.715Z,16.90
2018-07-17T04:10:59.820Z,16.90
2018-07-17T04:13:28.798Z,16.90
2018-07-17T04:15:57.479Z,17.00
2018-07-17T04:18:26.160Z,16.90
2018-07-17T04:20:55.005Z,16.90
2018-07-17T04:23:23.840Z,16.90
2018-07-17T04:25:52.557Z,17.00
2018-07-17T04:28:21.434Z,16.90
2018-07-17T04:30:50.441Z,17.00
2018-07-17T04:33:19.452Z,17.00
2018-07-17T04:35:48.844Z,16.90
2018-07-17T04:38:17.752Z,16.90
2018-07-17T04:40:46.449Z,16.80
2018-07-17T04:43:15.220Z,16.80
2018-07-17T04:45:43.962Z,16.80
2018-07-17T04:48:12.962Z,16.80
2018-07-17T04:50:41.784Z,16.80
2018-07-17T04:53:10.447Z,16.80
2018-07-17T04:55:39.084Z,16.80
2018-07-17T04:58:08.054Z,16.80
2018-07-17T05:00:36.709Z,16.80
2018-07-17T05:03:05.421Z,16.70
2018-07-17T05:05:34.017Z,16.70
2018-07-17T05:08:02.669Z,16.70
2018-07-17T05:10:31.444Z,16.70
2018-07-17T05:13:00.284Z,16.80
2018-07-17T05:15:28.946Z,16.80
2018-07-17T05:17:57.560Z,16.80
2018-07-17T05:20:26.496Z,16.80
2018-07-17T05:22:55.293Z,16.80
2018-07-17T05:25:23.816Z,16.80
2018-07-17T05:27:52.383Z,16.90
2018-07-17T05:30:21.181Z,16.90
2018-07-17T05:32:50.083Z,17.00
2018-07-17T05:35:18.941Z,17.00
2018-07-17T05:37:47.744Z,17.00
2018-07-17T05:40:16.757Z,17.10
2018-07-17T05:42:46.229Z,17.10
2018-07-17T05:45:15.156Z,17.10
2018-07-17T05:47:43.837Z,17.20
2018-07-17T05:50:13.148Z,17.20
2018-07-17T05:52:42.386Z,17.20
2018-07-17T05:55:10.949Z,17.20
2018-07-17T05:57:39.793Z,17.30
2018-07-17T06:00:09.024Z,17.30
2018-07-17T06:02:37.656Z,17.30
2018-07-17T06:05:06.566Z,17.40
2018-07-17T06:07:35.574Z,17.40
2018-07-17T06:10:04.823Z,17.40
2018-07-17T06:12:33.769Z,17.40
2018-07-17T06:15:03.522Z,17.50
2018-07-17T06:17:32.256Z,17.50
2018-07-17T06:20:00.874Z,17.50
2018-07-17T06:22:29.857Z,17.60
2018-07-17T06:24:58.580Z,17.60
2018-07-17T06:27:27.321Z,17.60
2018-07-17T06:29:56.078Z,17.70
2018-07-17T06:32:24.764Z,17.70
2018-07-17T06:34:53.573Z,17.70
2018-07-17T06:37:22.507Z,17.70
2018-07-17T06:39:51.069Z,17.80
2018-07-17T06:42:20.380Z,17.80
2018-07-17T06:44:49.298Z,17.80
2018-07-17T06:47:18.058Z,17.80
2018-07-17T06:49:47.022Z,17.90
2018-07-17T06:52:16.300Z,17.90
2018-07-17T06:54:44.934Z,17.90
2018-07-17T06:57:13.549Z,17.90
2018-07-17T06:59:42.260Z,17.90
2018-07-17T07:02:11.093Z,18.00
2018-07-17T07:04:39.694Z,18.00
2018-07-17T07:07:08.334Z,18.00
2018-07-17T07:09:36.963Z,18.00
2018-07-17T07:12:06.204Z,18.10
2018-07-17T07:17:02.988Z,18.20
2018-07-17T07:19:31.691Z,18.10
2018-07-17T07:22:00.305Z,18.20
2018-07-17T07:24:28.981Z,18.20
2018-07-17T07:26:57.597Z,18.20
2018-07-17T07:29:26.306Z,18.30
2018-07-17T07:31:54.901Z,18.20
2018-07-17T07:34:23.802Z,18.30
2018-07-17T07:36:52.446Z,18.30
2018-07-17T07:39:21.145Z,18.30
2018-07-17T07:41:49.790Z,18.30
2018-07-17T07:44:18.417Z,18.30
2018-07-17T07:46:47.640Z,18.40
2018-07-17T07:49:16.307Z,18.30
2018-07-17T07:51:45.041Z,18.40
2018-07-17T07:54:13.736Z,18.40
2018-07-17T07:56:42.324Z,18.40
2018-07-17T07:59:10.941Z,18.40
2018-07-17T08:01:39.502Z,18.50
2018-07-17T08:04:08.089Z,18.40
2018-07-17T08:06:36.684Z,18.40
2018-07-17T08:09:07.705Z,18.40
2018-07-17T08:11:36.474Z,18.40
2018-07-17T08:14:05.238Z,18.40
2018-07-17T08:16:33.896Z,18.50
2018-07-17T08:19:02.453Z,18.40
2018-07-17T08:21:31.162Z,18.50
2018-07-17T08:23:59.810Z,18.40
2018-07-17T08:26:28.429Z,18.50
2018-07-17T08:31:25.483Z,18.50
2018-07-17T08:33:54.133Z,18.50
2018-07-17T08:36:22.706Z,18.50
2018-07-17T08:38:51.271Z,18.50
2018-07-17T08:41:19.878Z,18.50
2018-07-17T08:43:48.546Z,18.60
2018-07-17T08:46:17.558Z,18.60
2018-07-17T08:48:46.242Z,18.60
2018-07-17T08:51:14.922Z,18.60
2018-07-17T08:53:43.602Z,18.60
2018-07-17T08:56:12.305Z,18.60
2018-07-17T08:58:43.121Z,18.60
2018-07-17T09:01:11.896Z,18.60
2018-07-17T09:03:40.454Z,18.60
2018-07-17T09:06:09.512Z,18.60
2018-07-17T09:08:38.140Z,18.60
2018-07-17T09:11:07.517Z,18.70
2018-07-17T09:13:36.535Z,18.60
2018-07-17T09:16:05.436Z,18.60
2018-07-17T09:18:34.778Z,18.60
2018-07-17T09:21:03.565Z,18.70
2018-07-17T09:23:32.545Z,18.70
2018-07-17T09:26:01.336Z,18.70
2018-07-17T09:28:30.062Z,18.80
2018-07-17T09:30:58.638Z,18.80
2018-07-17T09:33:27.488Z,18.80
2018-07-17T09:38:24.914Z,18.80
2018-07-17T09:40:53.970Z,18.80
2018-07-17T09:43:22.689Z,18.80
2018-07-17T09:45:51.942Z,18.80
2018-07-17T09:48:20.870Z,18.80
2018-07-17T09:50:49.669Z,18.80
2018-07-17T09:53:18.355Z,18.90
2018-07-17T09:55:47.248Z,18.90
2018-07-17T09:58:16.319Z,19.00
2018-07-17T10:00:50.540Z,18.90
2018-07-17T10:03:19.326Z,18.90
2018-07-17T10:05:48.072Z,18.90
2018-07-17T10:08:16.846Z,18.90
2018-07-17T10:10:45.670Z,18.90
2018-07-17T10:13:14.408Z,19.00
2018-07-17T10:15:43.321Z,18.90
2018-07-17T10:18:12.232Z,19.00
2018-07-17T10:20:41.003Z,19.00
2018-07-17T10:23:09.872Z,18.90
2018-07-17T10:25:39.049Z,19.00
2018-07-17T10:28:08.017Z,19.00
2018-07-17T10:30:37.278Z,19.00
2018-07-17T10:33:06.338Z,19.00
2018-07-17T10:35:35.568Z,19.00
2018-07-17T10:38:04.196Z,19.00
2018-07-17T10:40:33.187Z,19.00
2018-07-17T10:43:02.061Z,19.00
2018-07-17T10:45:31.024Z,19.00
2018-07-17T10:47:59.746Z,19.00
2018-07-17T10:50:28.678Z,19.00
2018-07-17T10:52:57.437Z,19.00
2018-07-17T10:55:26.712Z,19.00
2018-07-17T10:57:55.698Z,19.00
2018-07-17T11:00:24.645Z,19.00
2018-07-17T11:02:53.485Z,19.10
2018-07-17T11:05:23.209Z,19.10
2018-07-17T11:07:52.203Z,19.10
2018-07-17T11:10:21.076Z,19.20
2018-07-17T11:12:50.740Z,19.20
2018-07-17T11:15:19.514Z,19.20
2018-07-17T11:17:48.249Z,19.20
2018-07-17T11:20:16.973Z,19.20
2018-07-17T11:22:45.630Z,19.20
2018-07-17T11:25:14.333Z,19.10
2018-07-17T11:27:43.237Z,19.20
2018-07-17T11:30:12.326Z,19.10
2018-07-17T11:32:41.012Z,19.20
2018-07-17T11:35:09.886Z,19.20
2018-07-17T11:37:38.701Z,19.30
2018-07-17T11:40:07.463Z,19.20
2018-07-17T11:42:36.157Z,19.20
2018-07-17T11:45:07.060Z,19.20
2018-07-17T11:47:35.886Z,19.20
2018-07-17T11:50:05.248Z,19.20
2018-07-17T11:52:34.119Z,19.20
2018-07-17T11:55:03.187Z,19.20
2018-07-17T11:57:31.861Z,19.20
2018-07-17T12:00:00.593Z,19.20
2018-07-17T12:02:29.367Z,19.20
2018-07-17T12:04:58.243Z,19.30
2018-07-17T12:07:26.805Z,19.30
2018-07-17T12:09:55.497Z,19.40
2018-07-17T12:12:24.365Z,19.50
2018-07-17T12:17:21.756Z,19.70
2018-07-17T12:19:50.612Z,19.60
2018-07-17T12:22:19.670Z,19.60
2018-07-17T12:24:48.617Z,19.60
2018-07-17T12:27:17.839Z,19.50
2018-07-17T12:29:46.700Z,19.60
2018-07-17T12:32:15.445Z,19.60
2018-07-17T12:34:44.273Z,19.50
2018-07-17T12:37:13.230Z,19.50
2018-07-17T12:39:42.141Z,19.40
2018-07-17T12:42:10.893Z,19.40
2018-07-17T12:44:39.652Z,19.40
2018-07-17T12:47:08.407Z,19.40
2018-07-17T12:49:37.467Z,19.40
2018-07-17T12:52:06.182Z,19.40
2018-07-17T12:54:35.166Z,19.40
2018-07-17T12:57:03.765Z,19.40
2018-07-17T12:59:32.632Z,19.40
2018-07-17T13:02:01.490Z,19.40
2018-07-17T13:04:30.282Z,19.40
2018-07-17T13:06:59.030Z,19.50
2018-07-17T13:09:27.629Z,19.40
2018-07-17T13:11:56.674Z,19.40
2018-07-17T13:14:25.528Z,19.40
2018-07-17T13:16:54.270Z,19.40
2018-07-17T13:19:22.986Z,19.50
2018-07-17T13:21:51.811Z,19.50
2018-07-17T13:24:20.505Z,19.50
2018-07-17T13:26:49.190Z,19.60
2018-07-17T13:29:18.001Z,19.60
2018-07-17T13:31:46.760Z,19.70
2018-07-17T13:34:15.567Z,19.70
2018-07-17T13:36:44.149Z,19.70
2018-07-17T13:39:13.637Z,19.70
2018-07-17T13:41:42.427Z,19.60
2018-07-17T13:44:11.001Z,19.60
2018-07-17T13:46:39.544Z,19.60
2018-07-17T13:49:08.384Z,19.60
2018-07-17T13:51:37.219Z,19.60
2018-07-17T13:54:05.864Z,19.60
2018-07-17T13:56:34.749Z,19.60
2018-07-17T13:59:03.351Z,19.60
2018-07-17T14:01:32.114Z,19.60
2018-07-17T14:04:00.848Z,19.60
2018-07-17T14:06:29.514Z,19.60
2018-07-17T14:08:58.296Z,19.70
2018-07-17T14:11:27.208Z,19.70
2018-07-17T14:13:55.972Z,19.60
2018-07-17T14:16:24.975Z,19.60
2018-07-17T14:18:53.868Z,19.60
2018-07-17T14:21:22.477Z,19.60
2018-07-17T14:23:51.214Z,19.60
2018-07-17T14:26:20.057Z,19.60
2018-07-17T14:28:49.002Z,19.50
2018-07-17T14:31:18.335Z,19.50
2018-07-17T14:33:47.063Z,19.60
2018-07-17T14:36:16.119Z,19.60
2018-07-17T14:38:44.986Z,19.60
2018-07-17T14:41:13.876Z,19.50
2018-07-17T14:43:42.473Z,19.50
2018-07-17T14:46:11.026Z,19.50
2018-07-17T14:48:39.984Z,19.50
2018-07-17T14:51:10.891Z,19.50
2018-07-17T14:53:39.604Z,19.50
2018-07-17T14:56:08.576Z,19.50
2018-07-17T14:58:37.169Z,19.60
2018-07-17T15:01:06.373Z,19.60
2018-07-17T15:03:35.757Z,19.50
2018-07-17T15:06:04.976Z,19.60
2018-07-17T15:08:33.541Z,19.50
2018-07-17T15:11:02.125Z,19.50
2018-07-17T15:13:31.020Z,19.50
2018-07-17T15:15:59.908Z,19.50
2018-07-17T15:18:28.933Z,19.60
2018-07-17T15:20:57.994Z,19.50
2018-07-17T15:23:26.722Z,19.60
2018-07-17T15:25:55.743Z,19.70
2018-07-17T15:28:24.567Z,19.80
2018-07-17T15:30:53.579Z,19.80
2018-07-17T15:33:22.452Z,19.80
2018-07-17T15:35:51.285Z,19.90
2018-07-17T15:38:20.345Z,19.90
2018-07-17T15:40:49.335Z,19.90
2018-07-17T15:43:18.348Z,19.90
2018-07-17T15:45:47.505Z,20.00
2018-07-17T15:48:16.978Z,19.90
2018-07-17T15:50:45.538Z,19.80
2018-07-17T15:53:14.130Z,19.80
2018-07-17T15:55:42.672Z,19.80
2018-07-17T15:58:11.631Z,19.80
2018-07-17T16:00:40.247Z,19.70
2018-07-17T16:03:08.964Z,19.70
2018-07-17T16:05:37.892Z,19.70
2018-07-17T16:08:06.941Z,19.60
2018-07-17T16:10:35.757Z,19.70
2018-07-17T16:13:04.777Z,19.70
2018-07-17T16:15:33.588Z,19.70
2018-07-17T16:18:02.486Z,19.80
2018-07-17T16:20:31.532Z,19.70
2018-07-17T16:23:00.233Z,19.80
2018-07-17T16:25:29.090Z,19.80
2018-07-17T16:27:57.968Z,19.80
2018-07-17T16:30:27.546Z,19.80
2018-07-17T16:32:56.300Z,19.80
2018-07-17T16:35:25.451Z,19.80
2018-07-17T16:37:54.634Z,19.80
2018-07-17T16:40:23.778Z,19.80
2018-07-17T16:42:53.259Z,19.80
2018-07-17T16:45:22.293Z,19.80
2018-07-17T16:47:51.682Z,19.80
2018-07-17T16:50:21.142Z,19.70
2018-07-17T16:55:19.270Z,19.70
2018-07-17T16:57:48.174Z,19.70
2018-07-17T17:00:17.166Z,19.70
2018-07-17T17:02:46.524Z,19.60
2018-07-17T17:05:15.597Z,19.60
2018-07-17T17:07:44.433Z,19.50
2018-07-17T17:10:13.253Z,19.50
2018-07-17T17:12:42.024Z,19.50
2018-07-17T17:15:11.470Z,19.50
2018-07-17T17:17:40.528Z,19.50
2018-07-17T17:20:09.077Z,19.50
2018-07-17T17:22:37.992Z,19.50
2018-07-17T17:25:06.801Z,19.50
2018-07-17T17:27:35.571Z,19.50
2018-07-17T17:30:04.587Z,19.60
2018-07-17T17:32:33.197Z,19.50
2018-07-17T17:35:01.921Z,19.50
2018-07-17T17:37:30.756Z,19.50
2018-07-17T17:39:59.420Z,19.60
2018-07-17T17:42:28.387Z,19.50
2018-07-17T17:44:57.089Z,19.50
2018-07-17T17:47:28.510Z,19.50
2018-07-17T17:49:57.769Z,19.50
2018-07-17T17:52:26.745Z,19.50
2018-07-17T17:54:55.725Z,19.50
2018-07-17T17:57:24.436Z,19.60
2018-07-17T17:59:53.425Z,19.50
2018-07-17T18:02:22.721Z,19.50
2018-07-17T18:04:51.381Z,19.50
2018-07-17T18:07:20.157Z,19.60
2018-07-17T18:09:49.491Z,19.50
2018-07-17T18:12:18.787Z,19.50
2018-07-17T18:14:47.762Z,19.50
2018-07-17T18:17:16.468Z,19.50
2018-07-17T18:19:45.280Z,19.50
2018-07-17T18:22:13.980Z,19.40
2018-07-17T18:24:43.305Z,19.40
2018-07-17T18:27:12.049Z,19.40
2018-07-17T18:29:41.011Z,19.40
2018-07-17T18:32:09.919Z,19.30
2018-07-17T18:34:38.569Z,19.30
2018-07-17T18:37:07.308Z,19.30
2018-07-17T18:39:36.086Z,19.30
2018-07-17T18:42:04.927Z,19.30
2018-07-17T18:44:33.564Z,19.30
2018-07-17T18:47:02.355Z,19.30
2018-07-17T18:49:31.164Z,19.30
2018-07-17T18:52:00.092Z,19.30
2018-07-17T18:54:28.908Z,19.30
2018-07-17T18:56:58.039Z,19.30
2018-07-17T18:59:26.897Z,19.30
2018-07-17T19:01:55.629Z,19.30
2018-07-17T19:04:26.853Z,19.30
2018-07-17T19:06:55.509Z,19.30
2018-07-17T19:09:24.453Z,19.30
2018-07-17T19:11:53.318Z,19.30
2018-07-17T19:14:22.776Z,19.20
2018-07-17T19:16:51.408Z,19.20
2018-07-17T19:19:20.268Z,19.20
2018-07-17T19:21:49.073Z,19.20
2018-07-17T19:24:17.876Z,19.20
2018-07-17T19:26:46.905Z,19.20
2018-07-17T19:29:15.847Z,19.20
2018-07-17T19:31:44.846Z,19.20
2018-07-17T19:34:13.646Z,19.20
2018-07-17T19:36:42.552Z,19.10
2018-07-17T19:39:12.310Z,19.10
2018-07-17T19:44:09.886Z,19.10
2018-07-17T19:46:38.497Z,19.10
2018-07-17T19:49:07.414Z,19.00
2018-07-17T19:51:36.386Z,19.00
2018-07-17T19:54:05.300Z,19.00
2018-07-17T19:56:34.034Z,19.00
2018-07-17T19:59:02.724Z,19.00
2018-07-17T20:01:31.467Z,19.00
2018-07-17T20:04:00.496Z,18.90
2018-07-17T20:06:29.379Z,18.90
2018-07-17T20:08:57.967Z,18.90
2018-07-17T20:11:26.917Z,18.90
2018-07-17T20:13:55.592Z,18.90
2018-07-17T20:16:24.352Z,18.80
2018-07-17T20:18:53.166Z,18.80
2018-07-17T20:21:22.010Z,18.80
2018-07-17T20:23:50.958Z,18.70
2018-07-17T20:26:20.088Z,18.80
2018-07-17T20:28:48.642Z,18.70
2018-07-17T20:31:17.401Z,18.70
2018-07-17T20:33:45.967Z,18.70
2018-07-17T20:36:14.746Z,18.70
2018-07-17T20:38:43.826Z,18.60
2018-07-17T20:41:12.595Z,18.60
2018-07-17T20:43:41.320Z,18.60
2018-07-17T20:46:10.074Z,18.60
2018-07-17T20:48:38.829Z,18.60
2018-07-17T20:51:07.849Z,18.50
2018-07-17T20:53:36.381Z,18.50
2018-07-17T20:56:05.343Z,18.50
2018-07-17T20:58:34.180Z,18.50
2018-07-17T21:01:02.969Z,18.50
2018-07-17T21:03:31.799Z,18.50
2018-07-17T21:06:00.726Z,18.50
2018-07-17T21:08:29.278Z,18.50
2018-07-17T21:10:58.048Z,18.40
2018-07-17T21:13:27.018Z,18.40
2018-07-17T21:15:56.074Z,18.40
2018-07-17T21:18:24.828Z,18.50
2018-07-17T21:20:53.566Z,18.40
2018-07-17T21:23:22.306Z,18.40
2018-07-17T21:25:51.028Z,18.40
2018-07-17T21:28:19.800Z,18.40
2018-07-17T21:30:48.777Z,18.40
2018-07-17T21:33:17.667Z,18.40
2018-07-17T21:35:46.356Z,18.40
2018-07-17T21:38:15.163Z,18.40
2018-07-17T21:40:43.712Z,18.40
2018-07-17T21:43:12.433Z,18.30
2018-07-17T21:45:41.187Z,18.40
2018-07-17T21:48:10.144Z,18.30
2018-07-17T21:50:39.169Z,18.40
2018-07-17T21:53:08.190Z,18.30
2018-07-17T21:55:36.998Z,18.40
2018-07-17T21:58:05.702Z,18.30
2018-07-17T22:00:34.839Z,18.40
2018-07-17T22:05:31.916Z,18.30
2018-07-17T22:08:00.492Z,18.30
2018-07-17T22:10:29.413Z,18.30
2018-07-17T22:12:58.101Z,18.30
2018-07-17T22:15:26.990Z,18.20
2018-07-17T22:17:55.561Z,18.30
2018-07-17T22:20:24.489Z,18.30
2018-07-17T22:22:53.353Z,18.20
2018-07-17T22:25:22.112Z,18.20
2018-07-17T22:27:50.994Z,18.20
2018-07-17T22:30:19.808Z,18.20
2018-07-17T22:32:48.633Z,18.10
2018-07-17T22:35:17.550Z,18.20
2018-07-17T22:37:46.463Z,18.10
2018-07-17T22:40:15.368Z,18.10
2018-07-17T22:42:44.102Z,18.10
2018-07-17T22:45:12.941Z,18.10
2018-07-17T22:47:41.785Z,18.10
2018-07-17T22:50:10.580Z,18.00
2018-07-17T22:52:39.135Z,18.00
2018-07-17T22:55:07.947Z,18.00
2018-07-17T22:57:36.753Z,18.00
2018-07-17T23:00:06.382Z,18.00
2018-07-17T23:05:03.665Z,18.00
2018-07-17T23:07:32.510Z,18.00
2018-07-17T23:10:01.034Z,18.00
2018-07-17T23:14:58.240Z,17.90
2018-07-17T23:17:27.074Z,17.90
2018-07-17T23:19:55.914Z,18.00
2018-07-17T23:22:37.425Z,18.00
2018-07-17T23:25:06.072Z,17.90
2018-07-17T23:27:34.714Z,17.90
2018-07-17T23:30:03.863Z,17.90
2018-07-17T23:32:32.537Z,17.90
2018-07-17T23:37:29.625Z,17.90
2018-07-17T23:39:58.547Z,18.00
2018-07-17T23:42:27.277Z,18.00
2018-07-17T23:44:56.195Z,18.00
2018-07-17T23:47:24.834Z,18.00
2018-07-17T23:49:53.694Z,18.00
2018-07-17T23:52:22.263Z,18.00
2018-07-17T23:54:50.886Z,18.00
2018-07-17T23:57:19.630Z,17.90
2018-07-17T23:59:48.671Z,18.00
